< < Back
Terminal Aerodrome Forecast


Current Version              Previous Versions:   1  2  3  4  5  6  7  8  9  

Terminal Aerodrome Forecast

280
FTUS42 KFFC 011120
TAFAHN
TAF
KAHN 011120Z 0112/0212 VRB03KT P6SM FEW025
      TEMPO 0112/0113 5SM BR
     FM011500 VRB03KT P6SM SCT030
     FM011800 VRB04KT P6SM SCT050 SCT250
     FM020000 00000KT P6SM SCT250=

Latest METAR

435
SAUS70 KWBC 012200 RRH
MTRAHN
METAR KAHN 012151Z VRB03KT 10SM FEW047 31/18 A3010 RMK AO2 SLP183
T03110183


USA.gov is the U.S. government's official web portal to all federal, state and local government web resources and services.